Time;durP1;ratioP1;P1;durP2;ratioP2;P2;SDS_P1;SDS_P2;PMS_P1;PMS_P2;Temp;Humidity;BMP_temperature;BMP_pressure;BME280_temperature;BME280_humidity;BME280_pressure;Samples;Min_cycle;Max_cycle;Signal;HPM_P1;HPM_P2
2022/03/01 00:00:06;;;;;;;2.55;1.70;;;21.70;51.90;;;;;;5000294;28;20045;-73
2022/03/01 00:02:38;;;;;;;3.53;1.92;;;21.80;51.80;;;;;;4999412;28;20035;-74
2022/03/01 00:05:05;;;;;;;2.30;1.77;;;21.60;51.60;;;;;;5000334;28;20098;-73
2022/03/01 00:07:31;;;;;;;3.38;1.85;;;21.50;51.70;;;;;;5004223;28;20065;-74
2022/03/01 00:09:57;;;;;;;1.83;1.67;;;21.60;51.80;;;;;;5003312;28;20034;-74
2022/03/01 00:12:23;;;;;;;3.35;2.40;;;21.70;51.60;;;;;;5002652;28;20047;-74
2022/03/01 00:14:49;;;;;;;3.28;2.38;;;21.60;51.30;;;;;;4999257;28;20044;-73
2022/03/01 00:17:15;;;;;;;3.10;1.88;;;21.60;51.40;;;;;;4999305;28;20068;-73
2022/03/01 00:19:41;;;;;;;2.17;1.92;;;21.70;51.60;;;;;;4999676;28;20047;-74
2022/03/01 00:22:08;;;;;;;2.58;2.00;;;21.50;51.50;;;;;;4999863;28;20120;-73
2022/03/01 00:24:34;;;;;;;5.07;1.88;;;21.60;51.60;;;;;;5000416;28;20056;-73
2022/03/01 00:27:00;;;;;;;3.42;2.33;;;21.60;51.50;;;;;;4998580;28;20103;-73
2022/03/01 00:29:26;;;;;;;5.95;2.50;;;21.60;51.70;;;;;;4999605;28;20077;-74
2022/03/01 00:31:53;;;;;;;4.38;2.22;;;21.50;51.60;;;;;;4998307;28;20042;-74
2022/03/01 00:34:19;;;;;;;3.42;2.28;;;21.50;51.50;;;;;;4999034;28;20035;-74
2022/03/01 00:36:46;;;;;;;3.60;2.70;;;21.70;51.90;;;;;;4999767;28;20054;-73
2022/03/01 00:39:12;;;;;;;4.25;2.38;;;21.40;51.90;;;;;;4998940;28;20035;-74
2022/03/01 00:41:39;;;;;;;5.55;2.72;;;21.50;51.80;;;;;;4999102;28;20114;-73
2022/03/01 00:44:05;;;;;;;4.70;2.42;;;21.50;51.70;;;;;;4999047;28;20041;-75
2022/03/01 00:46:31;;;;;;;7.35;2.88;;;21.60;51.60;;;;;;4998890;28;20140;-74
2022/03/01 00:48:58;;;;;;;6.97;2.85;;;21.70;51.70;;;;;;4998883;28;20038;-74
2022/03/01 00:51:27;;;;;;;4.63;2.78;;;21.50;51.70;;;;;;4998102;28;20066;-74
2022/03/01 00:53:53;;;;;;;5.03;2.70;;;21.60;51.70;;;;;;4998072;28;20038;-73
2022/03/01 00:56:19;;;;;;;5.50;2.85;;;21.60;51.70;;;;;;4998050;28;20047;-73
2022/03/01 00:58:45;;;;;;;6.28;2.67;;;21.60;51.50;;;;;;4998089;28;20047;-73
2022/03/01 01:01:21;;;;;;;5.68;2.75;;;21.50;51.60;;;;;;4997433;28;20049;-74
2022/03/01 01:03:47;;;;;;;3.13;2.13;;;21.50;51.70;;;;;;4979836;28;20039;-73
2022/03/01 01:06:13;;;;;;;4.55;2.97;;;21.40;51.70;;;;;;4996631;28;20066;-75
2022/03/01 01:08:39;;;;;;;3.85;2.63;;;21.40;51.70;;;;;;4997173;28;20070;-74
2022/03/01 01:11:06;;;;;;;5.63;2.78;;;21.30;51.60;;;;;;4997164;28;20054;-73
2022/03/01 01:13:33;;;;;;;7.22;3.55;;;21.30;51.80;;;;;;4997370;28;20034;-73
2022/03/01 01:15:59;;;;;;;3.90;2.75;;;21.30;51.80;;;;;;4997935;28;20066;-73
2022/03/01 01:18:25;;;;;;;2.30;2.10;;;21.20;51.70;;;;;;4998507;28;20046;-73
2022/03/01 01:20:53;;;;;;;5.00;3.08;;;21.40;51.90;;;;;;4981912;28;20049;-74
2022/03/01 01:23:19;;;;;;;4.30;2.63;;;21.20;51.60;;;;;;4998300;28;20047;-73
2022/03/01 01:25:46;;;;;;;4.43;3.05;;;21.30;52.10;;;;;;4998238;28;20074;-74
2022/03/01 01:28:12;;;;;;;7.15;2.83;;;21.10;52.10;;;;;;4998748;28;20042;-74
2022/03/01 01:30:38;;;;;;;3.22;2.40;;;21.10;51.90;;;;;;4997978;28;20045;-73
2022/03/01 01:33:05;;;;;;;5.35;2.60;;;21.20;51.90;;;;;;4997995;28;20042;-73
2022/03/01 01:35:32;;;;;;;4.05;2.67;;;21.20;51.80;;;;;;4998229;28;20115;-73
2022/03/01 01:37:59;;;;;;;4.75;2.97;;;21.20;52.00;;;;;;4997772;28;20050;-74
2022/03/01 01:40:29;;;;;;;2.78;1.92;;;21.20;51.70;;;;;;4980420;28;20035;-73
2022/03/01 01:42:56;;;;;;;3.40;2.15;;;21.30;51.70;;;;;;4997873;28;20042;-74
2022/03/01 01:45:24;;;;;;;3.38;2.67;;;21.30;51.60;;;;;;5002603;28;20046;-73
2022/03/01 01:47:52;;;;;;;3.88;2.40;;;21.20;51.40;;;;;;5003951;28;20113;-73
2022/03/01 01:50:19;;;;;;;4.88;2.28;;;21.30;51.60;;;;;;5010819;28;20060;-73
2022/03/01 01:52:47;;;;;;;3.75;2.33;;;21.30;51.60;;;;;;5018072;28;20042;-74
2022/03/01 01:55:14;;;;;;;4.93;1.92;;;21.30;51.10;;;;;;5017889;28;20054;-73
2022/03/01 01:57:40;;;;;;;4.65;2.58;;;21.30;51.50;;;;;;5017756;28;20086;-73
2022/03/01 02:00:09;;;;;;;2.15;1.75;;;21.30;51.30;;;;;;5015744;28;20110;-73
2022/03/01 02:02:39;;;;;;;4.32;2.22;;;21.20;51.30;;;;;;5017253;28;20107;-73
2022/03/01 02:05:07;;;;;;;2.53;1.83;;;21.30;51.40;;;;;;5006319;28;20047;-73
2022/03/01 02:07:33;;;;;;;2.85;1.92;;;21.20;51.20;;;;;;4997642;28;20042;-73
2022/03/01 02:10:00;;;;;;;4.70;2.75;;;21.20;51.30;;;;;;4998748;28;20043;-73
2022/03/01 02:12:26;;;;;;;2.67;2.10;;;21.20;51.40;;;;;;4997422;28;20035;-73
2022/03/01 02:14:52;;;;;;;2.40;2.00;;;21.20;51.50;;;;;;4997367;28;20030;-74
2022/03/01 02:17:19;;;;;;;2.95;2.50;;;21.10;51.60;;;;;;4998780;28;20046;-73
2022/03/01 02:19:47;;;;;;;2.80;2.00;;;21.00;51.50;;;;;;4997945;28;20048;-73
2022/03/01 02:22:14;;;;;;;2.45;1.80;;;21.10;51.60;;;;;;5001567;28;20069;-73
2022/03/01 02:24:41;;;;;;;4.32;1.90;;;21.00;51.60;;;;;;5007700;28;20062;-74
2022/03/01 02:27:07;;;;;;;5.22;2.17;;;21.00;51.60;;;;;;4997482;28;20070;-74
2022/03/01 02:29:33;;;;;;;4.25;2.45;;;21.10;51.80;;;;;;4997478;28;20042;-75
2022/03/01 02:32:04;;;;;;;3.38;2.20;;;21.00;51.70;;;;;;4997678;28;20057;-73
2022/03/01 02:34:30;;;;;;;3.75;2.70;;;21.10;51.50;;;;;;4996617;28;20041;-74
2022/03/01 02:36:57;;;;;;;3.58;2.42;;;21.10;51.40;;;;;;4996827;28;20125;-74
2022/03/01 02:39:23;;;;;;;5.10;2.15;;;21.00;51.30;;;;;;4997462;28;20035;-73
2022/03/01 02:41:50;;;;;;;4.72;2.80;;;21.20;51.60;;;;;;5006217;28;20051;-74
2022/03/01 02:44:17;;;;;;;7.60;2.35;;;21.10;51.40;;;;;;4997347;28;20043;-73
2022/03/01 02:46:43;;;;;;;33.08;14.90;;;21.10;51.60;;;;;;4996655;28;20054;-73
2022/03/01 02:49:10;;;;;;;32.97;13.18;;;21.10;51.60;;;;;;4997284;28;20091;-73
2022/03/01 02:51:37;;;;;;;17.75;8.98;;;21.00;51.40;;;;;;5010670;28;20049;-74
2022/03/01 02:54:04;;;;;;;50.08;18.15;;;21.00;51.40;;;;;;4998931;28;20432;-73
2022/03/01 02:56:30;;;;;;;247.10;74.43;;;21.20;51.50;;;;;;5003271;28;20042;-73
2022/03/01 02:58:58;;;;;;;53.72;24.38;;;21.20;51.40;;;;;;5004369;28;20039;-73
2022/03/01 03:01:29;;;;;;;11.23;7.20;;;21.00;51.40;;;;;;4996287;28;20053;-73
2022/03/01 03:03:56;;;;;;;8.60;5.05;;;21.00;51.30;;;;;;4997279;28;20054;-73
2022/03/01 03:06:23;;;;;;;3.63;2.67;;;21.10;51.50;;;;;;4996985;28;20045;-73
2022/03/01 03:08:49;;;;;;;4.95;3.38;;;20.90;51.60;;;;;;4996858;28;20042;-74
2022/03/01 03:11:15;;;;;;;9.15;3.75;;;20.90;51.60;;;;;;4997790;28;20031;-74
2022/03/01 03:13:41;;;;;;;42.22;21.77;;;20.80;51.60;;;;;;4997573;28;20039;-73
2022/03/01 03:16:07;;;;;;;22.00;12.13;;;20.90;51.60;;;;;;4997228;28;20119;-73
2022/03/01 03:18:34;;;;;;;42.33;21.27;;;20.90;51.60;;;;;;4997690;28;20110;-74
2022/03/01 03:21:01;;;;;;;12.43;8.30;;;20.80;51.80;;;;;;4996733;28;20042;-74
2022/03/01 03:23:27;;;;;;;8.85;5.20;;;20.70;51.90;;;;;;4999658;28;20050;-73
2022/03/01 03:25:54;;;;;;;8.13;5.25;;;20.80;51.90;;;;;;4997127;28;20063;-73
2022/03/01 03:28:21;;;;;;;11.88;6.43;;;20.90;52.00;;;;;;4996928;28;20050;-74
2022/03/01 03:30:50;;;;;;;9.57;5.45;;;20.80;51.90;;;;;;4997422;28;20068;-73
2022/03/01 03:33:16;;;;;;;5.10;3.55;;;20.80;51.70;;;;;;4996343;28;20039;-73
2022/03/01 03:35:43;;;;;;;10.68;4.95;;;20.70;51.70;;;;;;4999610;28;20070;-73
2022/03/01 03:38:09;;;;;;;6.50;4.00;;;20.70;51.40;;;;;;4998967;28;20042;-74
2022/03/01 03:40:35;;;;;;;13.85;7.15;;;20.90;51.50;;;;;;4996390;28;20050;-73
2022/03/01 03:43:01;;;;;;;7.70;4.35;;;20.80;51.30;;;;;;4996444;28;20043;-73
2022/03/01 03:45:27;;;;;;;9.82;6.20;;;20.80;51.20;;;;;;4996977;28;20071;-73
2022/03/01 03:47:53;;;;;;;5.82;3.78;;;20.80;51.30;;;;;;4997876;28;20043;-74
2022/03/01 03:50:20;;;;;;;5.93;3.95;;;20.90;51.30;;;;;;4996369;28;20077;-74
2022/03/01 03:52:46;;;;;;;3.22;2.60;;;20.90;51.40;;;;;;4996561;28;20042;-73
2022/03/01 03:55:12;;;;;;;5.13;3.47;;;20.80;51.30;;;;;;4997703;28;20069;-73
2022/03/01 03:57:40;;;;;;;6.80;3.60;;;20.90;51.40;;;;;;4996210;28;20111;-73
2022/03/01 04:00:16;;;;;;;7.25;3.30;;;20.90;51.40;;;;;;4996172;28;20035;-73
2022/03/01 04:02:44;;;;;;;5.57;3.45;;;20.80;51.50;;;;;;5010832;28;20073;-74
2022/03/01 04:05:12;;;;;;;3.55;2.45;;;20.90;51.40;;;;;;4996345;28;20041;-74
2022/03/01 04:07:43;;;;;;;5.97;3.05;;;20.80;51.20;;;;;;5001796;28;20050;-73
2022/03/01 04:10:10;;;;;;;6.13;3.50;;;20.90;51.10;;;;;;5012257;28;20039;-73
2022/03/01 04:12:37;;;;;;;5.95;3.90;;;21.00;51.20;;;;;;4999942;28;20066;-73
2022/03/01 04:15:06;;;;;;;6.47;3.88;;;20.80;51.20;;;;;;5005440;28;20046;-74
2022/03/01 04:17:32;;;;;;;8.73;2.55;;;20.90;51.30;;;;;;5006049;28;20138;-73
2022/03/01 04:19:58;;;;;;;5.50;3.58;;;20.80;51.50;;;;;;4999573;28;20043;-74
2022/03/01 04:22:24;;;;;;;5.18;3.28;;;20.70;51.40;;;;;;5000041;28;20043;-73
2022/03/01 04:24:50;;;;;;;4.75;2.40;;;20.80;51.50;;;;;;4999185;28;20038;-73
2022/03/01 04:27:18;;;;;;;4.97;2.72;;;20.70;51.60;;;;;;4999152;28;20054;-73
2022/03/01 04:29:45;;;;;;;5.35;2.80;;;20.70;51.60;;;;;;4999311;28;20038;-73
2022/03/01 04:32:12;;;;;;;5.07;3.05;;;20.70;51.90;;;;;;5000639;28;20089;-73
2022/03/01 04:34:38;;;;;;;4.18;2.25;;;20.70;51.70;;;;;;4999603;28;20070;-74
2022/03/01 04:37:04;;;;;;;5.93;2.85;;;20.70;51.90;;;;;;4999299;28;20053;-73
2022/03/01 04:39:33;;;;;;;4.10;2.88;;;20.80;51.50;;;;;;4998986;28;20043;-73
2022/03/01 04:42:01;;;;;;;7.35;3.05;;;20.80;51.60;;;;;;4998959;28;20038;-74
2022/03/01 04:44:27;;;;;;;4.97;2.90;;;20.90;51.40;;;;;;4998455;28;20106;-73
2022/03/01 04:46:53;;;;;;;3.97;2.42;;;20.80;51.20;;;;;;5001725;28;20045;-74
2022/03/01 04:49:19;;;;;;;4.45;2.75;;;20.80;51.30;;;;;;4999144;28;20035;-73
2022/03/01 04:51:46;;;;;;;6.68;3.30;;;20.80;51.40;;;;;;4998867;28;20699;-74
2022/03/01 04:54:13;;;;;;;8.13;4.30;;;20.90;51.30;;;;;;5008348;28;20022;-73
2022/03/01 04:56:39;;;;;;;7.97;3.95;;;20.70;51.20;;;;;;5016513;28;20146;-74
2022/03/01 04:59:05;;;;;;;8.95;4.82;;;20.70;51.40;;;;;;4997915;28;20045;-73
2022/03/01 05:01:32;;;;;;;5.72;3.45;;;20.80;51.40;;;;;;4981976;28;20046;-73
2022/03/01 05:03:58;;;;;;;5.90;3.03;;;20.80;51.30;;;;;;4999386;28;20053;-73
2022/03/01 05:06:24;;;;;;;7.63;3.85;;;20.80;51.30;;;;;;4998515;28;20046;-73
2022/03/01 05:08:50;;;;;;;6.90;3.20;;;20.80;51.40;;;;;;5001324;28;20061;-73
2022/03/01 05:11:17;;;;;;;5.63;3.53;;;20.70;51.20;;;;;;5005816;28;20038;-73
2022/03/01 05:13:43;;;;;;;5.40;3.45;;;20.70;51.40;;;;;;4998352;28;20035;-73
2022/03/01 05:16:09;;;;;;;4.22;2.95;;;20.70;51.60;;;;;;4997910;28;20066;-73
2022/03/01 05:18:35;;;;;;;11.95;5.10;;;20.70;51.60;;;;;;4999400;28;20078;-74
2022/03/01 05:21:02;;;;;;;3.70;3.17;;;20.60;51.60;;;;;;4997626;28;20106;-74
2022/03/01 05:23:28;;;;;;;6.03;3.90;;;20.60;51.50;;;;;;4997619;28;20122;-73
2022/03/01 05:25:54;;;;;;;5.68;3.40;;;20.70;51.80;;;;;;4999110;28;20050;-73
2022/03/01 05:28:20;;;;;;;15.55;8.18;;;20.60;51.70;;;;;;4997390;28;20039;-73
2022/03/01 05:30:46;;;;;;;10.85;5.32;;;20.60;51.80;;;;;;4996694;28;20046;-73
2022/03/01 05:33:12;;;;;;;10.93;5.63;;;20.50;51.90;;;;;;4999078;28;20039;-73
2022/03/01 05:35:39;;;;;;;29.08;15.57;;;20.60;51.80;;;;;;4996879;28;20042;-73
2022/03/01 05:38:07;;;;;;;10.68;4.97;;;20.70;52.00;;;;;;4997092;28;20051;-73
2022/03/01 05:40:33;;;;;;;12.50;5.72;;;20.60;52.00;;;;;;4997710;28;20046;-73
2022/03/01 05:43:00;;;;;;;16.13;7.35;;;20.70;51.60;;;;;;4998316;28;20114;-74
2022/03/01 05:45:26;;;;;;;13.07;6.93;;;20.70;51.70;;;;;;4994592;28;20043;-73
2022/03/01 05:47:53;;;;;;;41.00;22.75;;;20.80;51.40;;;;;;5007316;28;20039;-73
2022/03/01 05:50:19;;;;;;;15.77;7.93;;;20.70;51.50;;;;;;5017339;28;20034;-74
2022/03/01 05:52:47;;;;;;;12.18;5.97;;;20.70;51.20;;;;;;5005970;28;20034;-73
2022/03/01 05:55:13;;;;;;;7.88;3.72;;;20.80;51.30;;;;;;4997303;28;20043;-73
2022/03/01 05:57:40;;;;;;;32.28;12.90;;;20.90;50.90;;;;;;4997278;28;20049;-74
2022/03/01 06:00:09;;;;;;;63.38;23.75;;;20.80;50.90;;;;;;4997092;28;20102;-74
2022/03/01 06:02:42;;;;;;;79.38;31.83;;;20.80;51.20;;;;;;4989534;28;20066;-73
2022/03/01 06:05:09;;;;;;;20.75;10.32;;;20.80;51.30;;;;;;4997132;28;20089;-73
2022/03/01 06:07:35;;;;;;;13.25;7.97;;;20.80;51.40;;;;;;4996918;28;20035;-74
2022/03/01 06:10:01;;;;;;;4.35;3.17;;;20.90;51.10;;;;;;4997047;28;20038;-73
2022/03/01 06:12:27;;;;;;;4.50;3.28;;;20.90;51.20;;;;;;4998321;28;20046;-73
2022/03/01 06:14:54;;;;;;;6.90;4.10;;;20.70;51.60;;;;;;5005363;28;20057;-73
2022/03/01 06:17:20;;;;;;;6.85;4.70;;;20.80;51.80;;;;;;4999716;28;20047;-73
2022/03/01 06:19:46;;;;;;;6.45;3.10;;;20.80;51.80;;;;;;5000832;28;20047;-71
2022/03/01 06:22:13;;;;;;;4.53;2.95;;;20.70;44.90;;;;;;4992125;28;20043;-71
2022/03/01 06:24:41;;;;;;;6.35;3.00;;;20.80;40.90;;;;;;5005195;28;20417;-70
2022/03/01 06:27:08;;;;;;;6.28;3.38;;;20.80;39.30;;;;;;5006367;28;20078;-72
2022/03/01 06:29:34;;;;;;;4.85;3.08;;;20.70;37.80;;;;;;5006197;28;20039;-71
2022/03/01 06:32:01;;;;;;;4.13;2.88;;;20.90;37.60;;;;;;5006571;28;20051;-72
2022/03/01 06:34:27;;;;;;;4.03;2.72;;;21.00;36.80;;;;;;4996898;28;20062;-71
2022/03/01 06:36:53;;;;;;;5.10;3.03;;;21.00;37.10;;;;;;5002388;28;20061;-70
2022/03/01 06:39:19;;;;;;;17.40;9.18;;;21.10;34.70;;;;;;5004380;28;20098;-71
2022/03/01 06:41:46;;;;;;;4.15;3.17;;;21.20;34.70;;;;;;5004812;28;20049;-71
2022/03/01 06:44:12;;;;;;;8.43;2.90;;;21.10;34.90;;;;;;5007326;28;20050;-72
2022/03/01 06:46:38;;;;;;;7.20;3.47;;;21.30;37.70;;;;;;5002570;28;20066;-70
2022/03/01 06:49:04;;;;;;;6.47;3.53;;;21.40;37.70;;;;;;5007239;28;20046;-72
2022/03/01 06:51:31;;;;;;;6.70;3.40;;;21.50;35.90;;;;;;5003079;28;20407;-70
2022/03/01 06:53:57;;;;;;;15.85;7.78;;;21.50;42.10;;;;;;4998982;28;20046;-72
2022/03/01 06:56:23;;;;;;;7.05;3.00;;;21.60;36.00;;;;;;4996746;28;20057;-72
2022/03/01 06:58:49;;;;;;;6.53;3.90;;;21.50;38.90;;;;;;4999861;28;20098;-72
2022/03/01 07:01:17;;;;;;;7.80;4.43;;;21.60;37.50;;;;;;5001368;28;20110;-73
2022/03/01 07:03:43;;;;;;;5.53;3.28;;;21.50;37.80;;;;;;5006151;28;20053;-72
2022/03/01 07:06:10;;;;;;;7.63;3.42;;;21.60;37.80;;;;;;4998312;28;20058;-72
2022/03/01 07:08:36;;;;;;;7.97;4.72;;;21.60;36.50;;;;;;4996220;28;20047;-71
2022/03/01 07:11:03;;;;;;;4.10;3.35;;;21.70;44.90;;;;;;5005526;28;20042;-71
2022/03/01 07:13:29;;;;;;;5.13;3.50;;;21.80;52.10;;;;;;5005575;28;20050;-72
2022/03/01 07:15:55;;;;;;;4.85;3.35;;;21.80;51.80;;;;;;4998074;28;20051;-72
2022/03/01 07:18:21;;;;;;;4.80;2.63;;;21.70;52.30;;;;;;4997332;28;20106;-72
2022/03/01 07:20:47;;;;;;;7.40;4.03;;;21.60;55.20;;;;;;4995828;28;20042;-70
2022/03/01 07:23:13;;;;;;;11.00;4.57;;;21.50;55.80;;;;;;4996129;28;20122;-70
2022/03/01 07:25:40;;;;;;;10.43;5.82;;;21.60;56.40;;;;;;5003951;28;20062;-69
2022/03/01 07:28:06;;;;;;;10.38;3.90;;;21.50;57.40;;;;;;4996780;28;20046;-70
2022/03/01 07:30:33;;;;;;;10.55;4.20;;;21.30;57.40;;;;;;5010832;28;20683;-70
2022/03/01 07:33:01;;;;;;;7.57;4.72;;;21.20;57.10;;;;;;4999928;28;20102;-69
2022/03/01 07:35:28;;;;;;;5.85;4.10;;;21.40;58.20;;;;;;4995843;28;20062;-73
2022/03/01 07:37:55;;;;;;;7.20;4.47;;;21.20;58.20;;;;;;5001046;28;20039;-69
2022/03/01 07:40:26;;;;;;;6.57;3.55;;;21.10;58.90;;;;;;4995527;28;20058;-70
2022/03/01 07:42:53;;;;;;;6.55;3.90;;;21.10;59.30;;;;;;4996447;28;20042;-69
2022/03/01 07:45:21;;;;;;;6.32;3.35;;;21.20;59.80;;;;;;4999250;28;20058;-72
2022/03/01 07:47:47;;;;;;;7.35;3.35;;;21.20;59.10;;;;;;5009956;28;20050;-69
2022/03/01 07:50:14;;;;;;;6.47;3.95;;;21.20;59.00;;;;;;4999921;28;20042;-70
2022/03/01 07:52:40;;;;;;;8.55;3.65;;;21.20;59.20;;;;;;4999664;28;20039;-71
2022/03/01 07:55:07;;;;;;;4.35;2.75;;;21.20;59.20;;;;;;4999798;28;20110;-69
2022/03/01 07:57:33;;;;;;;5.13;2.65;;;21.30;47.80;;;;;;5007072;28;20035;-70
2022/03/01 07:59:59;;;;;;;3.80;2.35;;;21.50;45.40;;;;;;4999413;28;20046;-69
2022/03/01 08:02:25;;;;;;;5.30;2.35;;;21.60;40.00;;;;;;5006015;28;20081;-70
2022/03/01 08:04:51;;;;;;;9.30;4.40;;;21.80;39.70;;;;;;4982644;28;20031;-70
2022/03/01 08:07:17;;;;;;;6.38;3.58;;;21.90;38.40;;;;;;5002205;28;20112;-69
2022/03/01 08:09:44;;;;;;;16.42;5.88;;;21.90;37.60;;;;;;5000246;28;20034;-70
2022/03/01 08:12:11;;;;;;;4.70;2.90;;;22.00;38.70;;;;;;4992615;28;20043;-71
2022/03/01 08:14:37;;;;;;;17.92;7.47;;;22.00;39.70;;;;;;4999339;28;20055;-71
2022/03/01 08:17:03;;;;;;;7.63;3.88;;;22.00;51.60;;;;;;5000232;28;20102;-70
2022/03/01 08:19:29;;;;;;;10.27;5.70;;;22.00;52.80;;;;;;5001282;28;20050;-69
2022/03/01 08:21:56;;;;;;;4.38;3.83;;;22.00;53.40;;;;;;4999045;28;20103;-71
2022/03/01 08:24:22;;;;;;;6.85;3.65;;;21.80;54.30;;;;;;4998903;28;20097;-71
2022/03/01 08:26:49;;;;;;;7.07;3.83;;;21.80;55.10;;;;;;5003272;28;20116;-70
2022/03/01 08:29:16;;;;;;;2.63;1.67;;;21.70;55.80;;;;;;5001312;28;20077;-70
2022/03/01 08:31:43;;;;;;;4.95;3.50;;;21.70;56.30;;;;;;5000828;28;20049;-71
2022/03/01 08:34:10;;;;;;;8.63;3.92;;;21.80;56.40;;;;;;5004208;28;20111;-70
2022/03/01 08:36:35;;;;;;;6.25;2.97;;;21.70;57.00;;;;;;4998223;28;20042;-71
2022/03/01 08:39:02;;;;;;;6.47;2.97;;;21.80;58.30;;;;;;4999841;28;20043;-70
2022/03/01 08:41:29;;;;;;;8.88;4.45;;;21.80;56.30;;;;;;5004679;28;20049;-71
2022/03/01 08:43:55;;;;;;;7.97;3.50;;;21.90;55.20;;;;;;4998294;28;20077;-71
2022/03/01 08:46:23;;;;;;;5.32;3.47;;;21.90;56.50;;;;;;5001474;28;20150;-71
2022/03/01 08:48:53;;;;;;;2.38;1.88;;;22.00;57.10;;;;;;5017839;28;20089;-71
2022/03/01 08:51:21;;;;;;;5.95;3.83;;;21.80;56.40;;;;;;5011946;28;20038;-70
2022/03/01 08:53:48;;;;;;;5.47;3.38;;;21.70;56.40;;;;;;4998490;28;20102;-70
2022/03/01 08:56:15;;;;;;;5.97;3.63;;;21.70;57.10;;;;;;4998157;28;20053;-70
2022/03/01 08:58:44;;;;;;;5.22;3.50;;;21.80;55.90;;;;;;4998493;28;20046;-70
2022/03/01 09:01:12;;;;;;;6.78;3.83;;;21.90;54.10;;;;;;4999454;28;20077;-70
2022/03/01 09:03:38;;;;;;;4.40;3.10;;;21.90;54.90;;;;;;5009153;28;20062;-71
2022/03/01 09:06:05;;;;;;;8.20;3.67;;;21.80;55.10;;;;;;5010664;28;20042;-71
2022/03/01 09:08:33;;;;;;;7.60;3.97;;;21.90;55.10;;;;;;4989203;28;20026;-70
2022/03/01 09:11:00;;;;;;;5.07;3.38;;;21.80;55.00;;;;;;5003298;28;20049;-71
2022/03/01 09:13:26;;;;;;;8.02;4.43;;;21.80;55.10;;;;;;5000211;28;20043;-70
2022/03/01 09:15:52;;;;;;;6.78;3.42;;;21.80;54.80;;;;;;5000014;28;20039;-70
2022/03/01 09:18:19;;;;;;;7.90;4.35;;;21.90;55.10;;;;;;5018031;28;20074;-70
2022/03/01 09:20:46;;;;;;;6.70;3.75;;;21.90;55.30;;;;;;5017712;28;20034;-70
2022/03/01 09:23:12;;;;;;;8.13;4.38;;;21.90;55.40;;;;;;5001852;28;20114;-71
2022/03/01 09:25:38;;;;;;;5.25;3.20;;;21.90;55.10;;;;;;4998147;28;20061;-71
2022/03/01 09:28:04;;;;;;;5.55;3.50;;;21.90;55.00;;;;;;5000061;28;20045;-70
2022/03/01 09:30:31;;;;;;;6.43;3.53;;;21.90;55.20;;;;;;5002926;28;20035;-70
2022/03/01 09:32:57;;;;;;;5.43;3.00;;;21.80;53.90;;;;;;5007146;28;20030;-70
2022/03/01 09:35:23;;;;;;;8.18;4.03;;;21.90;54.70;;;;;;4998297;28;20042;-70
2022/03/01 09:37:49;;;;;;;4.85;3.03;;;21.90;54.50;;;;;;5011087;28;20045;-70
2022/03/01 09:40:15;;;;;;;8.98;4.20;;;21.90;54.40;;;;;;5017558;28;20045;-70
2022/03/01 09:42:42;;;;;;;7.38;3.83;;;22.00;54.70;;;;;;5017425;28;20031;-70
2022/03/01 09:45:13;;;;;;;5.85;3.40;;;21.80;54.70;;;;;;5015499;28;20049;-71
2022/03/01 09:47:40;;;;;;;6.60;3.70;;;21.80;54.60;;;;;;4978241;29;20047;-71
2022/03/01 09:50:08;;;;;;;10.32;4.53;;;21.80;54.50;;;;;;4978567;29;20035;-70
2022/03/01 09:52:35;;;;;;;7.80;4.18;;;21.70;54.60;;;;;;4978435;28;20043;-70
2022/03/01 09:55:01;;;;;;;12.70;6.65;;;21.70;54.70;;;;;;4981451;28;20039;-70
2022/03/01 09:57:27;;;;;;;5.40;3.45;;;21.50;54.80;;;;;;5000379;28;20046;-70
2022/03/01 09:59:54;;;;;;;4.45;3.25;;;21.50;55.30;;;;;;5016481;28;20053;-70
2022/03/01 10:02:20;;;;;;;10.35;4.13;;;21.60;54.40;;;;;;5004382;28;20050;-71
2022/03/01 10:04:54;;;;;;;3.92;3.35;;;21.60;54.10;;;;;;4998318;28;20048;-70
2022/03/01 10:07:25;;;;;;;5.15;3.70;;;21.50;54.30;;;;;;4996984;28;20057;-71
2022/03/01 10:09:52;;;;;;;5.65;2.97;;;21.40;53.80;;;;;;4997598;28;20043;-71
2022/03/01 10:12:26;;;;;;;4.47;2.88;;;21.70;54.20;;;;;;4998380;28;20046;-71
2022/03/01 10:15:03;;;;;;;8.18;4.32;;;21.60;54.40;;;;;;5001489;28;20035;-71
2022/03/01 10:17:40;;;;;;;5.13;3.08;;;21.50;54.40;;;;;;5001628;28;20050;-71
2022/03/01 10:20:18;;;;;;;5.40;3.13;;;21.40;54.10;;;;;;5016613;28;20050;-71
2022/03/01 10:22:45;;;;;;;4.40;3.25;;;21.50;54.00;;;;;;5000846;28;20070;-71
2022/03/01 10:25:13;;;;;;;5.90;3.67;;;21.40;54.40;;;;;;4996814;28;20172;-71
2022/03/01 10:27:39;;;;;;;7.47;2.90;;;21.40;54.60;;;;;;4997731;28;20069;-74
2022/03/01 10:30:07;;;;;;;4.63;3.28;;;21.40;52.30;;;;;;5009074;28;20042;-72
2022/03/01 10:32:34;;;;;;;6.07;3.90;;;21.40;54.40;;;;;;5016743;28;20043;-73
2022/03/01 10:35:05;;;;;;;4.35;2.83;;;21.70;51.30;;;;;;5014733;28;20048;-73
2022/03/01 10:37:34;;;;;;;7.90;3.30;;;21.80;50.00;;;;;;4999360;28;20509;-73
2022/03/01 10:40:12;;;;;;;2.53;2.13;;;21.80;48.30;;;;;;4996851;28;20738;-73
2022/03/01 10:42:38;;;;;;;7.15;4.30;;;21.90;47.10;;;;;;4997155;28;20110;-71
2022/03/01 10:45:06;;;;;;;5.18;4.10;;;21.90;44.50;;;;;;4997346;28;20047;-71
2022/03/01 10:47:32;;;;;;;8.13;3.20;;;21.90;44.30;;;;;;4998329;28;20066;-71
2022/03/01 10:50:10;;;;;;;7.32;4.13;;;21.70;45.30;;;;;;4997366;28;20039;-71
2022/03/01 10:52:39;;;;;;;4.75;3.58;;;21.80;43.90;;;;;;4997057;28;20066;-70
2022/03/01 10:55:20;;;;;;;10.80;4.28;;;21.60;46.60;;;;;;4979887;28;20059;-70
2022/03/01 10:58:05;;;;;;;6.30;3.85;;;21.60;47.50;;;;;;4997841;28;20042;-71
2022/03/01 11:00:34;;;;;;;5.25;3.20;;;21.60;43.70;;;;;;5008161;28;20038;-70
2022/03/01 11:03:06;;;;;;;4.55;2.72;;;21.60;39.90;;;;;;5009263;28;20077;-70
2022/03/01 11:05:33;;;;;;;5.78;2.92;;;21.70;40.60;;;;;;4996749;28;20043;-71
2022/03/01 11:08:09;;;;;;;3.65;2.38;;;21.80;37.90;;;;;;4996105;28;20049;-72
2022/03/01 11:10:38;;;;;;;4.32;3.03;;;21.80;37.90;;;;;;4996483;28;20102;-72
2022/03/01 11:13:06;;;;;;;5.20;2.67;;;21.80;38.20;;;;;;4997719;28;20058;-71
2022/03/01 11:16:06;;;;;;;2.78;2.00;;;21.80;38.50;;;;;;4997135;28;20073;-71
2022/03/01 11:19:02;;;;;;;3.15;2.33;;;21.80;38.50;;;;;;4994311;28;20054;-69
2022/03/01 11:21:29;;;;;;;4.47;2.70;;;21.90;37.50;;;;;;5000978;28;20114;-70
2022/03/01 11:23:57;;;;;;;9.15;2.65;;;21.80;37.40;;;;;;5006763;28;20073;-71
2022/03/01 11:26:23;;;;;;;4.78;2.30;;;21.90;38.50;;;;;;5000541;28;20051;-70
2022/03/01 11:28:54;;;;;;;4.55;2.95;;;21.70;38.40;;;;;;5000266;28;20034;-72
2022/03/01 11:31:28;;;;;;;4.55;2.67;;;21.80;36.80;;;;;;5001269;28;20062;-73
2022/03/01 11:34:00;;;;;;;3.08;2.08;;;21.70;37.70;;;;;;5002761;28;20042;-72
2022/03/01 11:36:34;;;;;;;0.82;0.82;;;21.80;37.80;;;;;;5012599;28;20062;-73
2022/03/01 11:39:13;;;;;;;5.25;2.85;;;21.90;49.80;;;;;;5017853;28;20076;-72
2022/03/01 11:41:43;;;;;;;2.85;2.22;;;21.90;38.40;;;;;;5001694;28;20039;-72
2022/03/01 11:44:10;;;;;;;5.55;2.83;;;21.80;37.10;;;;;;5000715;28;20391;-71
2022/03/01 11:46:41;;;;;;;5.55;2.85;;;21.70;36.90;;;;;;5012755;28;20074;-72
2022/03/01 11:49:08;;;;;;;6.43;4.03;;;21.70;37.00;;;;;;5000081;28;20043;-72
2022/03/01 11:51:40;;;;;;;8.50;3.42;;;21.90;49.70;;;;;;4999871;28;20062;-71
2022/03/01 11:54:10;;;;;;;5.70;3.50;;;21.90;50.90;;;;;;5000357;28;20043;-72
2022/03/01 11:56:38;;;;;;;6.63;3.80;;;21.90;51.40;;;;;;5009433;28;20039;-72
2022/03/01 11:59:07;;;;;;;5.93;3.13;;;21.90;52.20;;;;;;5000008;28;20047;-72
2022/03/01 12:01:35;;;;;;;4.93;3.17;;;22.00;52.80;;;;;;5009447;28;20043;-72
2022/03/01 12:04:07;;;;;;;3.85;2.88;;;22.00;53.10;;;;;;4999765;28;20046;-73
2022/03/01 12:06:37;;;;;;;4.20;3.15;;;22.10;52.90;;;;;;4999844;28;20046;-71
2022/03/01 12:09:08;;;;;;;4.70;3.70;;;22.10;52.80;;;;;;5002187;28;20038;-71
2022/03/01 12:11:38;;;;;;;5.18;3.67;;;22.10;53.70;;;;;;5010138;28;20035;-71
2022/03/01 12:14:07;;;;;;;4.45;2.92;;;21.90;54.00;;;;;;5019321;28;20049;-71
2022/03/01 12:16:34;;;;;;;5.43;3.70;;;21.90;54.20;;;;;;5003304;28;20042;-71
2022/03/01 12:19:22;;;;;;;4.78;3.45;;;21.90;54.60;;;;;;4999482;28;20049;-72
2022/03/01 12:21:53;;;;;;;5.15;3.58;;;21.90;54.50;;;;;;4984265;28;20042;-71
2022/03/01 12:24:24;;;;;;;5.82;3.35;;;21.90;55.10;;;;;;5018970;28;20054;-71
2022/03/01 12:26:53;;;;;;;6.32;3.67;;;21.90;54.80;;;;;;5010792;28;20078;-72
2022/03/01 12:29:27;;;;;;;7.47;4.38;;;21.90;54.90;;;;;;4998633;28;20042;-71
2022/03/01 12:31:59;;;;;;;5.22;3.75;;;21.90;54.80;;;;;;4999828;28;20041;-71
2022/03/01 12:34:28;;;;;;;5.33;3.50;;;21.90;55.00;;;;;;4979950;29;20031;-70
2022/03/01 12:37:00;;;;;;;7.38;3.90;;;21.90;55.00;;;;;;5014683;28;20050;-71
2022/03/01 12:39:27;;;;;;;6.57;4.25;;;21.90;55.00;;;;;;4995762;28;20047;-70
2022/03/01 12:41:54;;;;;;;7.18;4.80;;;21.90;54.60;;;;;;5000073;28;20043;-71
2022/03/01 12:44:29;;;;;;;5.85;4.00;;;22.00;55.20;;;;;;4998805;28;20074;-71
2022/03/01 12:46:57;;;;;;;6.60;4.22;;;21.90;55.10;;;;;;4998780;28;20074;-71